Flight Track Log - Related Links

Times and Time Zones

All times are in EDT time to prevent confusion due to time zone crossing. See the QXE2633 flight status page for this flight to view local times or setup timezone preferences in your user account.

Time Position Orientation Groundspeed Altitude Reporting Facility
EDT Latitude Longitude Course Direction KTS MPH feet Rate Location/Type
Sat 07:09:00 PM 44.9928 -122.5006 172° South  Level Estimated
Sat 07:10:00 PM 44.9103 -122.4677 164° South  Level FlightAware
Sat 07:11:00 PM 44.8252 -122.4544 164° South  Level Estimated
Sat 07:12:00 PM 44.7400 -122.4412 172° South  Level Estimated
Sat 07:13:00 PM 44.6539 -122.4076 165° South  Level FlightAware
Sat 07:14:00 PM 44.5678 -122.3742 165° South  Level FlightAware
Sat 07:15:00 PM 44.4790 -122.3612 169° South  Level Estimated
Sat 07:16:00 PM 44.3927 -122.3287 165° South  Level FlightAware
Sat 07:17:00 PM 44.3064 -122.2962 165° South  Level FlightAware
Sat 07:18:00 PM 44.2175 -122.2840 170° South  Level Estimated
Sat 07:19:00 PM 44.1299 -122.2592 168° South  Level FlightAware
Sat 07:20:00 PM 44.0424 -122.2345 169° South  Level FlightAware
Sat 07:21:00 PM 43.9548 -122.2098 169° South  Level FlightAware
Sat 07:22:00 PM 43.8673 -122.1851 169° South  Level FlightAware
Sat 07:23:00 PM 43.7797 -122.1606 169° South  Level FlightAware
Sat 07:24:00 PM 43.6921 -122.1361 169° South  Level FlightAware
Sat 07:25:00 PM 43.6045 -122.1117 169° South  Level FlightAware
Sat 07:26:00 PM 43.5170 -122.0874 169° South  Level FlightAware
Sat 07:27:00 PM 43.4294 -122.0631 169° South  Level FlightAware
Sat 07:28:00 PM 43.3418 -122.0389 169° South  Level FlightAware
Sat 07:29:00 PM 43.2542 -122.0148 169° South  Level FlightAware
Sat 07:30:00 PM 43.1666 -121.9908 169° South  Level FlightAware
Sat 07:31:00 PM 43.0790 -121.9668 169° South  Level FlightAware
Sat 07:32:00 PM 42.9914 -121.9429 169° South  Level FlightAware
Sat 07:33:00 PM 42.9110 -121.9210 169° South  Level FlightAware
Sat 07:34:00 PM 42.8306 -121.8991 169° South  Level FlightAware
Sat 07:35:00 PM 42.7501 -121.8774 169° South  Level FlightAware
Sat 07:36:00 PM 42.6683 -121.8712 180° South  Level Estimated
Sat 07:37:00 PM 42.5870 -121.8468 168° South  Level FlightAware
Sat 07:38:00 PM 42.5057 -121.8224 168° South  Level FlightAware
Sat 07:39:00 PM 42.4244 -121.7982 168° South  Level FlightAware
Sat 07:40:00 PM 42.3431 -121.7739 168° South  Level FlightAware
Sat 07:41:00 PM 42.2617 -121.7498 168° South  Level FlightAware
Sat 07:42:00 PM 42.1804 -121.7257 168° South  Level FlightAware
Sat 07:43:00 PM 42.0974 -121.7167 180° South  Level FlightAware
Sat 07:44:00 PM 42.0141 -121.7167 180° South  Level FlightAware
Sat 07:45:00 PM 41.9308 -121.7167 180° South  Level FlightAware
Sat 07:46:00 PM 41.8476 -121.7167 180° South  Level FlightAware
Sat 07:47:00 PM 41.7643 -121.7167 180° South  Level FlightAware
Sat 07:48:00 PM 41.6811 -121.7167 180° South  Level FlightAware
Sat 07:49:00 PM 41.5978 -121.7167 180° South  Level FlightAware
Sat 07:50:00 PM 41.5145 -121.7167 180° South  Level FlightAware
Sat 07:51:00 PM 41.4313 -121.7167 180° South  Level FlightAware
Sat 07:52:00 PM 41.3480 -121.7167 180° South  Level FlightAware
Sat 07:53:00 PM 41.2648 -121.7167 180° South  Level FlightAware
Sat 07:54:00 PM 41.1825 -121.7074 175° South  Level FlightAware
Sat 07:55:00 PM 41.1001 -121.6990 177° South  Level FlightAware
Sat 07:56:00 PM 41.0162 -121.6939 177° South  Level FlightAware
Sat 07:57:00 PM 40.9323 -121.6888 177° South  Level FlightAware
Sat 07:58:00 PM 40.8484 -121.6838 177° South  Level FlightAware
Sat 07:59:00 PM 40.7644 -121.6787 177° South  Level FlightAware
Sat 08:00:00 PM 40.6805 -121.6737 177° South  Level FlightAware
Sat 08:01:00 PM 40.5966 -121.6686 177° South  Level FlightAware
Sat 08:02:00 PM 40.5127 -121.6636 177° South  Level FlightAware
Sat 08:03:00 PM 40.4288 -121.6586 177° South  Level FlightAware
Sat 08:04:00 PM 40.3449 -121.6536 177° South  Level FlightAware
Sat 08:05:00 PM 40.2610 -121.6500 180° South  Level FlightAware
Sat 08:06:00 PM 40.1770 -121.6500 180° South  Level FlightAware
Sat 08:07:00 PM 40.0929 -121.6493 176° South  Level FlightAware
Sat 08:08:00 PM 40.0091 -121.6409 176° South  Level FlightAware
Sat 08:09:00 PM 39.9252 -121.6330 178° South  Level FlightAware
Sat 08:10:00 PM 39.8412 -121.6293 178° South  Level FlightAware
Sat 08:11:00 PM 39.7571 -121.6256 178° South  Level FlightAware
Sat 08:12:00 PM 39.6731 -121.6220 178° South  Level FlightAware
Sat 08:13:00 PM 39.5890 -121.6184 178° South  Level FlightAware
Sat 08:14:00 PM 39.5050 -121.6167 180° South  Level FlightAware
Sat 08:15:00 PM 39.4210 -121.6104 176° South  Level FlightAware
Sat 08:16:00 PM 39.3372 -121.6021 176° South  Level FlightAware
Sat 08:17:00 PM 39.2532 -121.6000 180° South  Level FlightAware
Sat 08:18:00 PM 39.1691 -121.6000 180° South  Level FlightAware
Sat 08:19:00 PM 39.0851 -121.5979 174° South  Level FlightAware
Sat 08:20:00 PM 39.0015 -121.5859 174° South  Level FlightAware
Sat 08:21:00 PM 38.9175 -121.5833 180° South  Level FlightAware
Sat 08:22:00 PM 38.8334 -121.5833 180° South  Level FlightAware
Sat 08:23:00 PM 38.7493 -121.5833 180° South  Level FlightAware
Sat 08:24:00 PM 38.6954 -121.5908 180° South  Level Estimated
Sat 08:25:00 PM 38.6954 -121.5908 180° South  Level Estimated
Sat 08:26:00 PM 38.6954 -121.5908 180° South  Level Estimated
Sat 08:27:00 PM 38.6954 -121.5908 90° East  Level Estimated
Sat 08:28:00 PM 38.6954 -121.5908 90° East  Level Estimated
Sat 08:29:00 PM 38.6954 -121.5908 90° East  Level Estimated
Sat 08:30:00 PM 38.6954 -121.5908 90° East  Level Estimated
Sat 08:31:00 PM 38.6954 -121.5908 90° East  Level Estimated
Sat 08:32:00 PM 38.6954 -121.5908 90° East  Level Estimated
Sat 08:33:00 PM 38.6954 -121.5908 90° East  Level Estimated
Sat 08:34:00 PM 38.6954 -121.5908 90° East  Level Estimated

Login

Don't have an account? Register now (free) for customized features, flight alerts, and more!